Terminal Aerodrome Forecast
Issued by NWS

Current Version | Previous Version | Text Only | Print | Product List | Glossary Off
Versions: 1 2 3 4 5 6 7 8 9 10 11 12 13 14 15 16 17 18

000
FTUS41 KILN 271752
TAFLUK
TAF
KLUK 271752Z 2718/2818 19004KT P6SM VCSH SCT050 BKN100
     FM272000 17006KT P6SM FEW045 OVC100
     FM272300 17004KT P6SM SCT045 BKN080
      TEMPO 2723/2801 3SM -TSRA OVC045CB
     FM280100 17004KT 6SM -SHRA VCTS OVC045CB
     FM280500 00000KT 5SM -SHRA OVC018
     FM280800 00000KT 4SM BR VCSH OVC010
     FM281100 28004KT 4SM BR OVC008
     FM281600 34007KT P6SM OVC018=

USA.gov is the U.S. government's official web portal to all federal, state and local government web resources and services.